createdAt,value
2023-02-28T00:01:34.917Z,8.30
2023-02-28T00:04:04.603Z,8.30
2023-02-28T00:06:32.522Z,7.95
2023-02-28T00:09:00.360Z,7.85
2023-02-28T00:11:28.539Z,6.82
2023-02-28T00:13:56.632Z,7.22
2023-02-28T00:16:25.032Z,7.93
2023-02-28T00:18:53.697Z,6.72
2023-02-28T00:21:23.166Z,7.65
2023-02-28T00:23:51.341Z,7.28
2023-02-28T00:26:21.726Z,7.47
2023-02-28T00:28:50.777Z,7.28
2023-02-28T00:31:18.923Z,7.75
2023-02-28T00:33:47.078Z,7.95
2023-02-28T00:36:16.572Z,6.97
2023-02-28T00:38:45.835Z,7.75
2023-02-28T00:41:13.723Z,7.20
2023-02-28T00:43:42.364Z,6.95
2023-02-28T00:46:12.645Z,7.57
2023-02-28T00:48:40.550Z,7.28
2023-02-28T00:51:08.446Z,7.80
2023-02-28T00:53:36.443Z,7.43
2023-02-28T00:56:06.290Z,7.70
2023-02-28T00:58:34.279Z,7.10
2023-02-28T01:01:02.453Z,6.57
2023-02-28T01:03:30.530Z,6.60
2023-02-28T01:05:58.606Z,7.43
2023-02-28T01:08:27.765Z,6.95
2023-02-28T01:10:56.050Z,6.78
2023-02-28T01:13:26.262Z,6.97
2023-02-28T01:15:56.775Z,6.55
2023-02-28T01:18:25.553Z,6.53
2023-02-28T01:20:53.676Z,7.25
2023-02-28T01:23:24.388Z,7.57
2023-02-28T01:25:52.920Z,6.55
2023-02-28T01:28:21.065Z,6.55
2023-02-28T01:30:52.610Z,6.45
2023-02-28T01:33:20.847Z,8.05
2023-02-28T01:35:48.778Z,7.15
2023-02-28T01:38:22.578Z,8.65
2023-02-28T01:40:52.003Z,7.20
2023-02-28T01:43:24.036Z,6.72
2023-02-28T01:45:54.301Z,6.60
2023-02-28T01:48:26.871Z,7.75
2023-02-28T01:50:57.261Z,6.57
2023-02-28T01:53:33.199Z,7.63
2023-02-28T01:56:01.307Z,6.78
2023-02-28T01:58:29.237Z,6.80
2023-02-28T02:01:01.273Z,6.53
2023-02-28T02:03:29.192Z,5.93
2023-02-28T02:05:57.108Z,7.20
2023-02-28T02:08:27.578Z,6.97
2023-02-28T02:10:58.801Z,7.15
2023-02-28T02:13:40.349Z,6.28
2023-02-28T02:16:21.971Z,7.53
2023-02-28T02:19:04.566Z,7.38
2023-02-28T02:22:21.017Z,7.03
2023-02-28T02:25:07.373Z,7.05
2023-02-28T02:27:55.960Z,7.50
2023-02-28T02:30:47.605Z,6.75
2023-02-28T02:33:54.479Z,6.97
2023-02-28T02:36:27.134Z,6.40
2023-02-28T02:39:04.146Z,6.65
2023-02-28T02:41:41.594Z,6.55
2023-02-28T02:44:16.698Z,7.47
2023-02-28T02:46:49.197Z,7.35
2023-02-28T02:49:22.335Z,7.78
2023-02-28T02:51:54.190Z,7.55
2023-02-28T02:54:29.654Z,7.60
2023-02-28T02:57:01.349Z,7.15
2023-02-28T02:59:32.168Z,7.75
2023-02-28T03:02:05.026Z,7.88
2023-02-28T03:04:37.144Z,8.20
2023-02-28T03:07:08.422Z,6.55
2023-02-28T03:09:37.478Z,8.45
2023-02-28T03:12:14.190Z,7.45
2023-02-28T03:14:57.911Z,8.50
2023-02-28T03:17:51.413Z,8.00
2023-02-28T03:20:32.422Z,7.60
2023-02-28T03:23:13.232Z,7.00
2023-02-28T03:25:54.077Z,8.25
2023-02-28T03:28:33.779Z,8.05
2023-02-28T03:31:05.665Z,8.35
2023-02-28T03:33:38.147Z,7.07
2023-02-28T03:36:10.240Z,8.30
2023-02-28T03:38:44.293Z,7.85
2023-02-28T03:41:17.992Z,9.07
2023-02-28T03:43:52.986Z,7.40
2023-02-28T03:46:26.390Z,8.45
2023-02-28T03:48:59.597Z,8.40
2023-02-28T03:51:29.209Z,8.40
2023-02-28T03:54:01.896Z,7.03
2023-02-28T03:56:36.092Z,8.07
2023-02-28T03:59:08.965Z,7.18
2023-02-28T04:01:42.116Z,7.20
2023-02-28T04:04:10.412Z,7.68
2023-02-28T04:06:38.919Z,8.40
2023-02-28T04:09:09.385Z,7.53
2023-02-28T04:11:39.541Z,8.95
2023-02-28T04:14:09.219Z,7.90
2023-02-28T04:16:41.925Z,7.32
2023-02-28T04:19:12.035Z,8.48
2023-02-28T04:21:41.605Z,7.63
2023-02-28T04:24:15.196Z,7.50
2023-02-28T04:26:45.742Z,7.22
2023-02-28T04:29:15.868Z,6.88
2023-02-28T04:31:43.793Z,8.75
2023-02-28T04:34:11.627Z,6.60
2023-02-28T04:36:39.487Z,8.38
2023-02-28T04:39:07.464Z,6.85
2023-02-28T04:41:36.853Z,7.22
2023-02-28T04:44:05.358Z,7.85
2023-02-28T04:46:33.254Z,8.68
2023-02-28T04:49:03.746Z,7.68
2023-02-28T04:51:31.932Z,7.32
2023-02-28T04:54:00.190Z,7.53
2023-02-28T04:56:28.271Z,8.00
2023-02-28T04:58:57.507Z,7.78
2023-02-28T05:01:28.273Z,8.70
2023-02-28T05:03:58.946Z,8.32
2023-02-28T05:06:29.034Z,7.90
2023-02-28T05:08:58.253Z,8.15
2023-02-28T05:11:30.349Z,9.13
2023-02-28T05:14:00.239Z,7.95
2023-02-28T05:16:28.180Z,9.07
2023-02-28T05:18:56.332Z,8.27
2023-02-28T05:21:28.722Z,8.30
2023-02-28T05:23:57.888Z,8.15
2023-02-28T05:26:26.550Z,7.70
2023-02-28T05:28:54.519Z,8.25
2023-02-28T05:31:23.817Z,8.90
2023-02-28T05:33:52.318Z,7.05
2023-02-28T05:36:20.531Z,7.15
2023-02-28T05:38:49.703Z,7.82
2023-02-28T05:41:20.202Z,7.55
2023-02-28T05:43:48.608Z,8.13
2023-02-28T05:46:17.454Z,8.55
2023-02-28T05:48:49.986Z,7.85
2023-02-28T05:51:18.599Z,6.60
2023-02-28T05:53:48.030Z,7.95
2023-02-28T05:56:16.009Z,8.65
2023-02-28T05:58:43.916Z,8.98
2023-02-28T06:01:32.548Z,7.85
2023-02-28T06:04:02.838Z,8.65
2023-02-28T06:06:31.903Z,7.03
2023-02-28T06:08:59.872Z,8.70
2023-02-28T06:11:34.546Z,7.55
2023-02-28T06:14:03.318Z,8.13
2023-02-28T06:16:38.124Z,9.43
2023-02-28T06:19:07.585Z,8.20
2023-02-28T06:21:35.548Z,7.43
2023-02-28T06:24:05.288Z,8.50
2023-02-28T06:26:35.198Z,9.48
2023-02-28T06:29:05.419Z,7.65
2023-02-28T06:31:33.864Z,8.13
2023-02-28T06:34:04.157Z,6.30
2023-02-28T06:36:33.365Z,6.65
2023-02-28T06:39:01.244Z,8.13
2023-02-28T06:41:31.354Z,8.93
2023-02-28T06:44:00.665Z,9.45
2023-02-28T06:46:28.693Z,10.48
2023-02-28T06:48:56.573Z,9.32
2023-02-28T06:51:25.324Z,10.02
2023-02-28T06:53:54.564Z,11.23
2023-02-28T06:56:22.796Z,10.32
2023-02-28T06:58:57.967Z,9.30
2023-02-28T07:01:25.940Z,9.45
2023-02-28T07:03:54.080Z,12.48
2023-02-28T07:06:23.556Z,11.38
2023-02-28T07:08:53.679Z,12.20
2023-02-28T07:11:24.247Z,13.40
2023-02-28T07:13:52.420Z,16.52
2023-02-28T07:16:20.716Z,12.10
2023-02-28T07:18:49.024Z,8.00
2023-02-28T07:21:17.395Z,8.85
2023-02-28T07:23:45.263Z,7.90
2023-02-28T07:26:15.711Z,8.05
2023-02-28T07:28:45.821Z,8.40
2023-02-28T07:31:15.099Z,8.88
2023-02-28T07:33:43.518Z,7.93
2023-02-28T07:36:16.323Z,9.55
2023-02-28T07:38:48.097Z,8.70
2023-02-28T07:41:17.471Z,8.95
2023-02-28T07:43:47.707Z,8.32
2023-02-28T07:46:17.494Z,8.02
2023-02-28T07:48:46.289Z,8.07
2023-02-28T07:51:14.419Z,8.80
2023-02-28T07:53:42.350Z,8.45
2023-02-28T07:56:11.696Z,8.60
2023-02-28T07:58:39.555Z,10.00
2023-02-28T08:01:21.447Z,8.93
2023-02-28T08:03:49.473Z,9.30
2023-02-28T08:06:20.507Z,9.20
2023-02-28T08:08:54.727Z,8.10
2023-02-28T08:11:22.592Z,8.57
2023-02-28T08:13:50.433Z,9.00
2023-02-28T08:16:23.020Z,11.02
2023-02-28T08:18:56.852Z,9.57
2023-02-28T08:21:25.355Z,9.80
2023-02-28T08:23:53.823Z,9.20
2023-02-28T08:26:22.273Z,10.25
2023-02-28T08:28:50.372Z,9.38
2023-02-28T08:31:20.190Z,9.10
2023-02-28T08:33:52.063Z,9.45
2023-02-28T08:36:32.402Z,9.05
2023-02-28T08:39:02.297Z,9.32
2023-02-28T08:41:30.886Z,9.45
2023-02-28T08:43:59.059Z,8.45
2023-02-28T08:46:27.204Z,9.85
2023-02-28T08:48:56.070Z,9.50
2023-02-28T08:51:28.556Z,9.35
2023-02-28T08:53:57.627Z,10.43
2023-02-28T08:56:25.591Z,12.38
2023-02-28T08:58:56.184Z,10.35
2023-02-28T09:01:28.250Z,9.60
2023-02-28T09:03:58.209Z,9.65
2023-02-28T09:06:29.642Z,8.98
2023-02-28T09:09:02.001Z,12.80
2023-02-28T09:11:30.967Z,11.70
2023-02-28T09:14:00.204Z,9.75
2023-02-28T09:16:28.738Z,10.50
2023-02-28T09:18:56.787Z,10.20
2023-02-28T09:21:25.128Z,9.45
2023-02-28T09:23:55.176Z,10.38
2023-02-28T09:26:25.702Z,11.15
2023-02-28T09:28:54.701Z,10.68
2023-02-28T09:31:24.285Z,9.90
2023-02-28T09:33:54.128Z,9.60
2023-02-28T09:36:26.930Z,9.80
2023-02-28T09:39:04.040Z,13.85
2023-02-28T09:41:40.886Z,12.98
2023-02-28T09:44:15.591Z,12.20
2023-02-28T09:46:47.010Z,13.07
2023-02-28T09:49:18.138Z,11.20
2023-02-28T09:51:52.397Z,11.80
2023-02-28T09:54:24.347Z,14.50
2023-02-28T09:56:55.453Z,12.25
2023-02-28T09:59:36.010Z,10.85
2023-02-28T10:02:14.283Z,11.73
2023-02-28T10:04:52.628Z,11.10
2023-02-28T10:07:34.959Z,9.80
2023-02-28T10:10:09.797Z,11.68
2023-02-28T10:12:43.747Z,10.57
2023-02-28T10:15:17.413Z,12.93
2023-02-28T10:17:55.777Z,11.93
2023-02-28T10:20:39.513Z,13.13
2023-02-28T10:23:15.198Z,14.80
2023-02-28T10:25:49.552Z,12.15
2023-02-28T10:28:18.870Z,12.27
2023-02-28T10:30:49.997Z,9.35
2023-02-28T10:33:30.660Z,10.45
2023-02-28T10:35:58.805Z,12.50
2023-02-28T10:38:29.672Z,11.88
2023-02-28T10:41:09.085Z,12.25
2023-02-28T10:43:37.830Z,10.68
2023-02-28T10:46:16.178Z,10.27
2023-02-28T10:48:50.843Z,10.15
2023-02-28T10:51:21.103Z,10.30
2023-02-28T10:54:01.167Z,11.60
2023-02-28T10:56:32.020Z,10.40
2023-02-28T10:59:02.568Z,10.40
2023-02-28T11:01:39.996Z,10.25
2023-02-28T11:04:20.647Z,9.70
2023-02-28T11:06:49.248Z,11.07
2023-02-28T11:09:24.867Z,10.73
2023-02-28T11:11:54.513Z,12.55
2023-02-28T11:14:26.265Z,12.57
2023-02-28T11:16:55.172Z,10.70
2023-02-28T11:19:27.445Z,13.00
2023-02-28T11:21:59.224Z,10.95
2023-02-28T11:24:30.601Z,11.35
2023-02-28T11:26:59.836Z,14.43
2023-02-28T11:29:29.926Z,12.25
2023-02-28T11:32:18.378Z,10.35
2023-02-28T11:34:47.414Z,10.40
2023-02-28T11:37:18.340Z,10.25
2023-02-28T11:39:47.300Z,10.73
2023-02-28T11:42:42.986Z,10.93
2023-02-28T11:45:22.404Z,11.70
2023-02-28T11:47:57.706Z,12.52
2023-02-28T11:50:50.002Z,11.95
2023-02-28T11:53:31.946Z,10.23
2023-02-28T11:56:05.789Z,11.95
2023-02-28T11:58:48.327Z,10.73
2023-02-28T12:01:36.824Z,10.10
2023-02-28T12:04:26.438Z,10.77
2023-02-28T12:07:01.247Z,10.80
2023-02-28T12:09:48.745Z,11.90
2023-02-28T12:12:29.525Z,11.90
2023-02-28T12:15:26.413Z,11.77
2023-02-28T12:18:08.319Z,11.50
2023-02-28T12:20:43.229Z,10.68
2023-02-28T12:23:29.718Z,14.63
2023-02-28T12:26:14.869Z,16.55
2023-02-28T12:28:48.372Z,14.55
2023-02-28T12:31:22.880Z,11.68
2023-02-28T12:33:55.662Z,14.90
2023-02-28T12:36:24.974Z,12.85
2023-02-28T12:38:58.106Z,11.80
2023-02-28T12:41:38.910Z,13.82
2023-02-28T12:44:13.807Z,10.90
2023-02-28T12:46:46.492Z,12.43
2023-02-28T12:49:18.288Z,11.35
2023-02-28T12:51:47.842Z,11.57
2023-02-28T12:54:24.939Z,10.80
2023-02-28T12:57:01.117Z,13.10
2023-02-28T12:59:37.352Z,10.40
2023-02-28T13:02:45.872Z,27.40
2023-02-28T13:06:07.319Z,14.20
2023-02-28T13:09:02.205Z,9.98
2023-02-28T13:11:35.930Z,10.73
2023-02-28T13:14:06.766Z,9.82
2023-02-28T13:16:58.984Z,10.77
2023-02-28T13:19:32.894Z,10.40
2023-02-28T13:22:02.496Z,11.07
2023-02-28T13:24:44.922Z,11.95
2023-02-28T13:27:26.287Z,10.77
2023-02-28T13:29:55.655Z,9.85
2023-02-28T13:32:44.752Z,10.93
2023-02-28T13:35:46.041Z,10.77
2023-02-28T13:38:33.687Z,10.25
2023-02-28T13:41:35.416Z,9.48
2023-02-28T13:44:06.933Z,10.45
2023-02-28T13:46:38.045Z,9.80
2023-02-28T13:49:21.198Z,10.52
2023-02-28T13:51:52.072Z,11.73
2023-02-28T13:54:44.404Z,11.70
2023-02-28T13:57:28.121Z,10.55
2023-02-28T14:00:11.451Z,11.55
2023-02-28T14:03:03.601Z,12.40
2023-02-28T14:05:34.212Z,13.35
2023-02-28T14:08:09.135Z,10.70
2023-02-28T14:10:41.173Z,12.77
2023-02-28T14:13:45.837Z,13.15
2023-02-28T14:16:16.613Z,11.00
2023-02-28T14:18:52.392Z,12.40
2023-02-28T14:21:27.027Z,11.60
2023-02-28T14:24:28.491Z,11.73
2023-02-28T14:27:10.029Z,11.00
2023-02-28T14:30:10.121Z,12.07
2023-02-28T14:32:46.506Z,12.20
2023-02-28T14:35:24.194Z,11.50
2023-02-28T14:37:52.371Z,12.70
2023-02-28T14:40:27.289Z,13.73
2023-02-28T14:42:58.491Z,12.00
2023-02-28T14:45:26.554Z,12.15
2023-02-28T14:47:56.692Z,10.95
2023-02-28T14:50:29.987Z,10.50
2023-02-28T14:52:58.249Z,11.10
2023-02-28T14:55:30.905Z,11.55
2023-02-28T14:58:00.416Z,13.80
2023-02-28T15:00:30.779Z,13.88
2023-02-28T15:03:00.300Z,13.30
2023-02-28T15:05:31.557Z,14.45
2023-02-28T15:08:08.227Z,14.82
2023-02-28T15:10:37.569Z,10.80
2023-02-28T15:13:09.044Z,16.70
2023-02-28T15:16:07.969Z,15.02
2023-02-28T15:18:45.125Z,11.82
2023-02-28T15:21:17.222Z,11.68
2023-02-28T15:23:52.066Z,12.15
2023-02-28T15:26:24.667Z,10.88
2023-02-28T15:28:56.631Z,10.55
2023-02-28T15:31:36.165Z,11.98
2023-02-28T15:34:15.448Z,11.57
2023-02-28T15:36:44.377Z,12.20
2023-02-28T15:39:21.860Z,17.40
2023-02-28T15:41:51.285Z,12.40
2023-02-28T15:44:27.913Z,12.90
2023-02-28T15:47:00.818Z,11.30
2023-02-28T15:49:29.987Z,10.30
2023-02-28T15:52:01.560Z,10.60
2023-02-28T15:54:32.672Z,13.23
2023-02-28T15:57:09.825Z,11.15
2023-02-28T15:59:38.750Z,11.25
2023-02-28T16:02:18.832Z,12.52
2023-02-28T16:05:05.104Z,10.02
2023-02-28T16:07:32.991Z,10.43
2023-02-28T16:10:01.350Z,15.02
2023-02-28T16:12:32.324Z,13.35
2023-02-28T16:15:03.865Z,13.77
2023-02-28T16:17:36.156Z,16.40
2023-02-28T16:20:15.244Z,13.45
2023-02-28T16:22:43.907Z,17.60
2023-02-28T16:25:15.050Z,14.95
2023-02-28T16:27:46.013Z,17.88
2023-02-28T16:30:21.225Z,12.80
2023-02-28T16:32:49.574Z,14.48
2023-02-28T16:35:18.863Z,12.23
2023-02-28T16:37:47.304Z,10.85
2023-02-28T16:40:18.093Z,12.57
2023-02-28T16:42:48.629Z,11.57
2023-02-28T16:45:22.218Z,14.65
2023-02-28T16:47:50.344Z,15.75
2023-02-28T16:50:21.566Z,13.32
2023-02-28T16:52:50.418Z,15.75
2023-02-28T16:55:18.312Z,13.40
2023-02-28T16:58:06.063Z,13.40
2023-02-28T17:00:35.074Z,14.65
2023-02-28T17:03:05.706Z,14.18
2023-02-28T17:05:39.028Z,13.40
2023-02-28T17:08:06.990Z,14.52
2023-02-28T17:10:35.003Z,15.93
2023-02-28T17:13:13.165Z,19.20
2023-02-28T17:15:43.891Z,18.67
2023-02-28T17:18:16.851Z,33.85
2023-02-28T17:20:44.891Z,34.50
2023-02-28T17:23:13.228Z,19.52
2023-02-28T17:25:42.190Z,20.70
2023-02-28T17:28:11.211Z,22.30
2023-02-28T17:30:39.409Z,21.35
2023-02-28T17:33:08.694Z,21.73
2023-02-28T17:35:36.949Z,16.55
2023-02-28T17:38:04.839Z,14.77
2023-02-28T17:40:34.833Z,14.55
2023-02-28T17:43:03.788Z,13.50
2023-02-28T17:45:31.946Z,16.20
2023-02-28T17:47:59.917Z,16.45
2023-02-28T17:50:29.440Z,16.30
2023-02-28T17:52:57.357Z,15.13
2023-02-28T17:55:25.221Z,17.55
2023-02-28T17:57:53.070Z,14.27
2023-02-28T18:00:24.997Z,15.98
2023-02-28T18:02:53.014Z,16.30
2023-02-28T18:05:20.893Z,15.20
2023-02-28T18:07:50.101Z,17.20
2023-02-28T18:10:21.030Z,20.65
2023-02-28T18:12:49.419Z,20.10
2023-02-28T18:15:23.013Z,18.55
2023-02-28T18:17:51.637Z,18.92
2023-02-28T18:20:20.577Z,18.38
2023-02-28T18:22:50.104Z,19.60
2023-02-28T18:25:18.081Z,21.90
2023-02-28T18:27:58.137Z,21.20
2023-02-28T18:30:28.832Z,19.65
2023-02-28T18:32:58.058Z,18.23
2023-02-28T18:35:35.681Z,20.10
2023-02-28T18:38:10.064Z,19.88
2023-02-28T18:40:38.440Z,21.05
2023-02-28T18:43:06.942Z,22.17
2023-02-28T18:45:37.503Z,20.38
2023-02-28T18:48:05.854Z,24.92
2023-02-28T18:50:33.950Z,22.80
2023-02-28T18:53:03.253Z,16.30
2023-02-28T18:55:34.197Z,14.02
2023-02-28T18:58:02.166Z,14.27
2023-02-28T19:00:31.513Z,14.15
2023-02-28T19:03:01.977Z,12.85
2023-02-28T19:05:33.453Z,14.25
2023-02-28T19:08:02.162Z,14.95
2023-02-28T19:10:30.192Z,14.98
2023-02-28T19:12:59.428Z,12.10
2023-02-28T19:15:27.490Z,10.90
2023-02-28T19:17:55.371Z,11.65
2023-02-28T19:20:23.404Z,11.00
2023-02-28T19:22:51.884Z,11.07
2023-02-28T19:25:20.172Z,11.70
2023-02-28T19:27:53.118Z,10.85
2023-02-28T19:30:22.507Z,11.10
2023-02-28T19:32:51.238Z,11.73
2023-02-28T19:35:19.218Z,11.93
2023-02-28T19:37:47.121Z,15.85
2023-02-28T19:40:15.371Z,12.43
2023-02-28T19:42:43.239Z,12.90
2023-02-28T19:45:14.682Z,17.60
2023-02-28T19:47:44.630Z,13.82
2023-02-28T19:50:12.722Z,11.70
2023-02-28T19:55:10.111Z,12.32
2023-02-28T19:57:38.063Z,13.57
2023-02-28T20:00:07.149Z,14.77
2023-02-28T20:02:40.727Z,16.95
2023-02-28T20:05:10.953Z,12.57
2023-02-28T20:07:38.840Z,13.32
2023-02-28T20:10:07.634Z,13.77
2023-02-28T20:12:35.530Z,14.93
2023-02-28T20:15:06.423Z,14.55
2023-02-28T20:17:34.401Z,12.68
2023-02-28T20:20:03.600Z,13.70
2023-02-28T20:22:38.259Z,13.40
2023-02-28T20:25:08.036Z,14.00
2023-02-28T20:27:36.122Z,14.68
2023-02-28T20:30:04.692Z,15.15
2023-02-28T20:32:33.532Z,12.50
2023-02-28T20:35:01.425Z,16.50
2023-02-28T20:37:29.560Z,16.45
2023-02-28T20:39:59.062Z,14.35
2023-02-28T20:42:26.926Z,13.75
2023-02-28T20:44:54.796Z,14.02
2023-02-28T20:47:22.914Z,13.82
2023-02-28T20:49:50.778Z,14.30
2023-02-28T20:52:18.714Z,13.95
2023-02-28T20:54:46.681Z,14.65
2023-02-28T20:57:15.894Z,14.95
2023-02-28T20:59:43.821Z,13.80
2023-02-28T21:02:15.646Z,15.05
2023-02-28T21:04:43.635Z,14.10
2023-02-28T21:07:11.559Z,15.43
2023-02-28T21:09:39.434Z,15.73
2023-02-28T21:12:07.520Z,13.15
2023-02-28T21:14:36.750Z,15.32
2023-02-28T21:17:08.400Z,17.02
2023-02-28T21:19:36.556Z,18.13
2023-02-28T21:22:04.858Z,17.15
2023-02-28T21:24:33.016Z,15.45
2023-02-28T21:27:02.130Z,17.73
2023-02-28T21:29:30.019Z,17.33
2023-02-28T21:31:59.753Z,18.40
2023-02-28T21:34:28.444Z,18.38
2023-02-28T21:37:12.022Z,17.52
2023-02-28T21:39:40.086Z,20.00
2023-02-28T21:42:07.988Z,18.10
2023-02-28T21:44:35.850Z,21.23
2023-02-28T21:47:05.443Z,23.20
2023-02-28T21:49:33.401Z,22.33
2023-02-28T21:52:01.473Z,21.63
2023-02-28T21:54:29.304Z,22.27
2023-02-28T21:56:59.673Z,23.50
2023-02-28T21:59:27.839Z,20.13
2023-02-28T22:01:55.891Z,23.55
2023-02-28T22:04:25.373Z,24.30
2023-02-28T22:06:54.998Z,25.02
2023-02-28T22:09:23.357Z,23.33
2023-02-28T22:11:51.618Z,27.42
2023-02-28T22:14:19.550Z,32.40
2023-02-28T22:16:53.889Z,41.35
2023-02-28T22:19:23.172Z,37.42
2023-02-28T22:21:53.777Z,26.05
2023-02-28T22:24:24.328Z,25.10
2023-02-28T22:26:53.264Z,23.60
2023-02-28T22:29:21.285Z,24.55
2023-02-28T22:31:49.301Z,23.20
2023-02-28T22:34:17.216Z,20.95
2023-02-28T22:36:45.334Z,17.73
2023-02-28T22:39:14.871Z,20.33
2023-02-28T22:41:42.758Z,21.00
2023-02-28T22:44:11.799Z,21.00
2023-02-28T22:46:40.785Z,20.40
2023-02-28T22:49:08.748Z,19.15
2023-02-28T22:51:36.725Z,20.02
2023-02-28T22:54:05.194Z,18.48
2023-02-28T22:56:35.017Z,18.52
2023-02-28T22:59:03.669Z,17.58
2023-02-28T23:01:33.763Z,17.88
2023-02-28T23:04:02.755Z,18.05
2023-02-28T23:06:32.906Z,17.83
2023-02-28T23:09:02.950Z,18.05
2023-02-28T23:11:32.898Z,17.40
2023-02-28T23:14:02.426Z,15.63
2023-02-28T23:16:32.394Z,17.75
2023-02-28T23:19:04.779Z,25.52
2023-02-28T23:21:33.417Z,33.00
2023-02-28T23:24:03.271Z,30.02
2023-02-28T23:26:32.953Z,37.20
2023-02-28T23:29:02.672Z,27.85
2023-02-28T23:31:30.872Z,33.75
2023-02-28T23:33:59.445Z,27.77
2023-02-28T23:36:29.159Z,25.70
2023-02-28T23:38:57.926Z,25.25
2023-02-28T23:41:27.084Z,20.65
2023-02-28T23:43:56.217Z,18.85
2023-02-28T23:46:25.762Z,16.50
2023-02-28T23:48:53.857Z,16.65
2023-02-28T23:51:22.981Z,18.30
2023-02-28T23:53:53.063Z,18.70
2023-02-28T23:56:23.852Z,17.88
2023-02-28T23:58:52.508Z,16.98
